createdAt,value
2022-10-18T00:00:14.560Z,13.85
2022-10-18T00:04:17.687Z,13.77
2022-10-18T00:08:22.606Z,13.69
2022-10-18T00:12:34.391Z,13.62
2022-10-18T00:16:37.465Z,13.54
2022-10-18T00:20:41.063Z,13.51
2022-10-18T00:24:45.628Z,13.51
2022-10-18T00:28:52.953Z,13.48
2022-10-18T00:32:56.713Z,13.43
2022-10-18T00:36:59.861Z,13.41
2022-10-18T00:41:05.072Z,13.43
2022-10-18T00:45:20.455Z,13.48
2022-10-18T00:49:29.039Z,13.55
2022-10-18T00:53:32.211Z,13.61
2022-10-18T00:57:38.264Z,13.70
2022-10-18T01:01:41.812Z,13.80
2022-10-18T01:05:48.961Z,13.93
2022-10-18T01:10:00.551Z,14.06
2022-10-18T01:14:14.482Z,14.18
2022-10-18T01:18:25.537Z,14.28
2022-10-18T01:22:33.123Z,14.34
2022-10-18T01:26:54.247Z,14.35
2022-10-18T01:31:01.753Z,14.30
2022-10-18T01:35:09.762Z,14.17
2022-10-18T01:39:17.002Z,14.04
2022-10-18T01:43:22.953Z,13.94
2022-10-18T01:47:29.953Z,13.85
2022-10-18T01:51:34.571Z,13.74
2022-10-18T01:55:45.301Z,13.67
2022-10-18T01:59:56.059Z,13.57
2022-10-18T02:04:09.958Z,13.48
2022-10-18T02:08:24.009Z,13.41
2022-10-18T02:12:30.573Z,13.39
2022-10-18T02:16:39.451Z,13.42
2022-10-18T02:20:44.149Z,13.48
2022-10-18T02:24:50.870Z,13.55
2022-10-18T02:28:54.153Z,13.64
2022-10-18T02:33:02.912Z,13.74
2022-10-18T02:37:07.344Z,13.81
2022-10-18T02:41:10.900Z,13.87
2022-10-18T02:45:15.305Z,13.90
2022-10-18T02:49:18.979Z,13.97
2022-10-18T02:53:23.885Z,14.01
2022-10-18T02:57:27.319Z,14.04
2022-10-18T03:01:30.379Z,14.06
2022-10-18T03:05:33.882Z,14.08
2022-10-18T03:09:38.791Z,14.11
2022-10-18T03:13:42.288Z,14.11
2022-10-18T03:17:45.241Z,14.10
2022-10-18T03:21:48.777Z,14.08
2022-10-18T03:25:53.396Z,14.03
2022-10-18T03:29:57.204Z,13.97
2022-10-18T03:34:00.242Z,13.91
2022-10-18T03:38:03.749Z,13.85
2022-10-18T03:42:08.040Z,13.80
2022-10-18T03:46:11.504Z,13.74
2022-10-18T03:50:14.982Z,13.67
2022-10-18T03:54:18.268Z,13.65
2022-10-18T03:58:24.078Z,13.61
2022-10-18T04:02:27.808Z,13.57
2022-10-18T04:06:30.773Z,13.53
2022-10-18T04:10:34.615Z,13.49
2022-10-18T04:14:39.569Z,13.47
2022-10-18T04:18:43.000Z,13.45
2022-10-18T04:22:46.318Z,13.42
2022-10-18T04:26:49.336Z,13.40
2022-10-18T04:30:55.133Z,13.40
2022-10-18T04:34:58.110Z,13.43
2022-10-18T04:39:01.486Z,13.44
2022-10-18T04:43:04.598Z,13.45
2022-10-18T04:47:09.496Z,13.47
2022-10-18T04:51:12.525Z,13.46
2022-10-18T04:55:15.974Z,13.47
2022-10-18T04:59:19.139Z,13.49
2022-10-18T05:03:24.083Z,13.49
2022-10-18T05:07:29.845Z,13.50
2022-10-18T05:11:33.380Z,13.52
2022-10-18T05:15:36.442Z,13.54
2022-10-18T05:19:41.341Z,13.57
2022-10-18T05:23:45.026Z,13.60
2022-10-18T05:27:48.003Z,13.60
2022-10-18T05:31:51.851Z,13.64
2022-10-18T05:35:56.599Z,13.68
2022-10-18T05:39:59.703Z,13.70
2022-10-18T05:44:06.780Z,13.72
2022-10-18T05:52:14.432Z,13.78
2022-10-18T05:56:17.669Z,13.80
2022-10-18T06:00:21.272Z,13.84
2022-10-18T06:04:24.576Z,13.87
2022-10-18T06:08:29.531Z,13.88
2022-10-18T06:12:32.527Z,13.93
2022-10-18T06:20:40.677Z,14.03
2022-10-18T06:24:45.512Z,14.08
2022-10-18T06:28:48.934Z,14.19
2022-10-18T06:32:52.488Z,14.28
2022-10-18T06:36:56.701Z,14.37
2022-10-18T06:41:04.136Z,14.49
2022-10-18T06:45:08.813Z,14.50
2022-10-18T06:49:14.063Z,14.68
2022-10-18T06:53:18.784Z,14.81
2022-10-18T06:57:23.189Z,14.90
2022-10-18T07:01:27.213Z,14.95
2022-10-18T07:05:30.904Z,15.01
2022-10-18T07:09:34.179Z,15.08
2022-10-18T07:13:39.055Z,15.20
2022-10-18T07:17:42.939Z,15.30
2022-10-18T07:21:45.911Z,15.42
2022-10-18T07:25:49.724Z,15.51
2022-10-18T07:29:54.722Z,15.58
2022-10-18T07:33:57.920Z,15.60
2022-10-18T07:38:01.502Z,15.69
2022-10-18T07:42:05.880Z,15.78
2022-10-18T07:46:10.515Z,15.90
2022-10-18T07:50:14.198Z,16.03
2022-10-18T07:54:18.019Z,16.19
2022-10-18T07:58:21.269Z,16.34
2022-10-18T08:02:26.220Z,16.51
2022-10-18T08:06:29.825Z,16.51
2022-10-18T08:10:32.887Z,16.81
2022-10-18T08:14:36.355Z,16.95
2022-10-18T08:18:42.014Z,17.08
2022-10-18T08:22:45.039Z,17.17
2022-10-18T08:26:50.605Z,17.25
2022-10-18T08:30:54.151Z,17.31
2022-10-18T08:34:58.732Z,17.43
2022-10-18T08:39:03.367Z,17.53
2022-10-18T08:43:10.489Z,17.66
2022-10-18T08:47:16.080Z,17.80
2022-10-18T08:51:33.170Z,17.95
2022-10-18T08:55:41.521Z,18.12
2022-10-18T08:59:46.259Z,18.26
2022-10-18T09:04:06.466Z,18.47
2022-10-18T09:08:29.127Z,18.67
2022-10-18T09:12:47.236Z,18.81
2022-10-18T09:17:04.336Z,18.92
2022-10-18T09:21:20.570Z,19.06
2022-10-18T09:25:28.614Z,19.30
2022-10-18T09:29:44.519Z,19.60
2022-10-18T09:33:55.247Z,20.10
2022-10-18T09:38:05.164Z,20.74
2022-10-18T09:42:21.259Z,21.36
2022-10-18T09:46:29.647Z,21.84
2022-10-18T09:50:40.088Z,22.26
2022-10-18T09:54:48.062Z,22.63
2022-10-18T09:58:53.330Z,22.99
2022-10-18T10:02:56.929Z,23.29
2022-10-18T10:07:03.149Z,23.62
2022-10-18T10:11:06.451Z,23.89
2022-10-18T10:15:21.078Z,24.19
2022-10-18T10:19:28.932Z,24.42
2022-10-18T10:23:38.086Z,24.66
2022-10-18T10:27:45.759Z,24.89
2022-10-18T10:32:04.526Z,25.04
2022-10-18T10:36:19.378Z,25.15
2022-10-18T10:40:27.814Z,25.22
2022-10-18T10:44:35.336Z,25.24
2022-10-18T10:48:48.454Z,25.27
2022-10-18T10:52:52.074Z,25.26
2022-10-18T10:57:01.836Z,25.28
2022-10-18T11:01:24.528Z,25.34
2022-10-18T11:05:29.938Z,25.48
2022-10-18T11:09:59.752Z,25.56
2022-10-18T11:18:35.293Z,25.85
2022-10-18T11:22:45.728Z,25.99
2022-10-18T11:26:54.650Z,26.15
2022-10-18T11:31:13.793Z,26.24
2022-10-18T11:35:31.044Z,26.31
2022-10-18T11:39:48.647Z,26.38
2022-10-18T11:44:02.619Z,26.43
2022-10-18T11:52:22.981Z,26.53
2022-10-18T11:56:37.036Z,26.61
2022-10-18T12:00:49.584Z,26.72
2022-10-18T12:05:22.133Z,26.89
2022-10-18T12:09:26.198Z,27.02
2022-10-18T12:13:38.172Z,27.11
2022-10-18T12:17:50.144Z,27.19
2022-10-18T12:21:54.527Z,27.30
2022-10-18T12:26:02.791Z,27.47
2022-10-18T12:30:16.022Z,27.55
2022-10-18T12:34:33.530Z,27.62
2022-10-18T12:38:39.137Z,27.63
2022-10-18T12:42:44.607Z,27.64
2022-10-18T12:46:52.524Z,27.62
2022-10-18T12:51:01.077Z,27.59
2022-10-18T12:55:30.289Z,27.54
2022-10-18T12:59:51.294Z,27.51
2022-10-18T13:03:59.193Z,27.45
2022-10-18T13:08:23.080Z,27.41
2022-10-18T13:13:05.029Z,27.34
2022-10-18T13:17:30.853Z,27.32
2022-10-18T13:21:45.441Z,27.32
2022-10-18T13:26:00.065Z,27.35
2022-10-18T13:30:29.115Z,27.38
2022-10-18T13:34:37.828Z,27.31
2022-10-18T13:38:48.581Z,27.17
2022-10-18T13:42:51.854Z,26.97
2022-10-18T13:47:14.404Z,26.88
2022-10-18T13:51:36.879Z,26.89
2022-10-18T13:56:04.139Z,26.98
2022-10-18T14:00:26.670Z,27.10
2022-10-18T14:04:47.917Z,27.15
2022-10-18T14:09:03.201Z,27.18
2022-10-18T14:13:21.554Z,27.15
2022-10-18T14:17:32.017Z,27.08
2022-10-18T14:21:39.731Z,27.01
2022-10-18T14:25:43.581Z,26.91
2022-10-18T14:29:49.219Z,26.76
2022-10-18T14:33:57.952Z,26.52
2022-10-18T14:38:02.580Z,26.22
2022-10-18T14:42:05.601Z,25.96
2022-10-18T14:46:20.145Z,25.73
2022-10-18T14:50:30.251Z,25.52
2022-10-18T14:54:38.097Z,25.31
2022-10-18T14:58:43.059Z,25.11
2022-10-18T15:02:48.051Z,24.95
2022-10-18T15:06:51.077Z,24.80
2022-10-18T15:10:55.309Z,24.67
2022-10-18T15:15:01.839Z,24.55
2022-10-18T15:19:08.646Z,24.40
2022-10-18T15:23:25.029Z,24.18
2022-10-18T15:27:33.217Z,23.95
2022-10-18T15:31:38.881Z,23.73
2022-10-18T15:35:43.685Z,23.50
2022-10-18T15:39:47.197Z,23.23
2022-10-18T15:43:50.738Z,23.05
2022-10-18T15:48:18.629Z,22.81
2022-10-18T15:52:45.817Z,22.60
2022-10-18T15:56:49.318Z,22.35
2022-10-18T16:00:54.400Z,22.06
2022-10-18T16:04:59.812Z,21.83
2022-10-18T16:09:05.502Z,21.58
2022-10-18T16:13:08.627Z,21.33
2022-10-18T16:17:17.602Z,21.08
2022-10-18T16:21:22.793Z,20.88
2022-10-18T16:25:27.320Z,20.72
2022-10-18T16:29:32.725Z,20.60
2022-10-18T16:33:36.955Z,20.48
2022-10-18T16:37:40.535Z,20.36
2022-10-18T16:41:45.483Z,20.22
2022-10-18T16:45:48.736Z,20.07
2022-10-18T16:49:52.183Z,19.91
2022-10-18T16:53:56.462Z,19.79
2022-10-18T16:58:01.603Z,19.67
2022-10-18T17:02:09.136Z,19.52
2022-10-18T17:06:17.433Z,19.40
2022-10-18T17:10:24.817Z,19.33
2022-10-18T17:14:29.299Z,19.24
2022-10-18T17:18:33.323Z,19.13
2022-10-18T17:22:36.607Z,19.11
2022-10-18T17:26:40.410Z,18.98
2022-10-18T17:30:45.625Z,18.96
2022-10-18T17:34:49.044Z,18.89
2022-10-18T17:38:52.871Z,18.86
2022-10-18T17:42:56.411Z,18.84
2022-10-18T17:47:00.930Z,18.86
2022-10-18T17:51:09.743Z,18.88
2022-10-18T17:55:16.160Z,18.91
2022-10-18T18:03:31.714Z,19.05
2022-10-18T18:07:35.377Z,19.12
2022-10-18T18:11:40.940Z,19.22
2022-10-18T18:15:44.134Z,19.32
2022-10-18T18:19:49.562Z,19.44
2022-10-18T18:23:53.309Z,19.53
2022-10-18T18:27:56.913Z,19.63
2022-10-18T18:32:00.773Z,19.70
2022-10-18T18:36:09.689Z,19.74
2022-10-18T18:40:13.698Z,19.71
2022-10-18T18:44:19.673Z,19.67
2022-10-18T18:48:23.513Z,19.60
2022-10-18T18:52:28.137Z,19.53
2022-10-18T18:56:31.929Z,19.47
2022-10-18T19:00:38.135Z,19.39
2022-10-18T19:04:47.652Z,19.41
2022-10-18T19:08:55.245Z,19.39
2022-10-18T19:12:58.376Z,19.39
2022-10-18T19:17:02.225Z,19.37
2022-10-18T19:21:06.944Z,19.36
2022-10-18T19:25:12.211Z,19.33
2022-10-18T19:29:18.347Z,19.26
2022-10-18T19:33:35.588Z,19.20
2022-10-18T19:37:45.926Z,19.08
2022-10-18T19:41:52.088Z,19.02
2022-10-18T19:45:55.761Z,18.96
2022-10-18T19:49:59.915Z,18.92
2022-10-18T19:54:03.371Z,18.88
2022-10-18T19:58:09.787Z,18.82
2022-10-18T20:02:15.618Z,18.76
2022-10-18T20:06:19.552Z,18.69
2022-10-18T20:10:23.269Z,18.63
2022-10-18T20:14:28.017Z,18.58
2022-10-18T20:18:31.507Z,18.53
2022-10-18T20:22:34.741Z,18.49
2022-10-18T20:26:38.728Z,18.44
2022-10-18T20:30:43.427Z,18.44
2022-10-18T20:34:46.483Z,18.45
2022-10-18T20:38:50.589Z,18.48
2022-10-18T20:42:54.450Z,18.57
2022-10-18T20:46:58.842Z,18.66
2022-10-18T20:51:04.960Z,18.72
2022-10-18T20:55:09.187Z,18.85
2022-10-18T20:59:12.339Z,18.95
2022-10-18T21:03:17.254Z,19.04
2022-10-18T21:07:20.782Z,19.11
2022-10-18T21:11:25.014Z,19.13
2022-10-18T21:15:28.231Z,19.12
2022-10-18T21:19:33.419Z,19.10
2022-10-18T21:23:36.973Z,19.08
2022-10-18T21:27:40.683Z,19.08
2022-10-18T21:31:46.680Z,19.09
2022-10-18T21:35:51.783Z,19.12
2022-10-18T21:39:55.574Z,19.10
2022-10-18T21:43:58.583Z,19.06
2022-10-18T21:48:01.992Z,19.10
2022-10-18T21:52:07.126Z,19.07
2022-10-18T21:56:12.846Z,19.06
2022-10-18T22:00:17.675Z,19.07
2022-10-18T22:04:23.235Z,19.07
2022-10-18T22:08:27.829Z,19.10
2022-10-18T22:12:31.495Z,19.12
2022-10-18T22:16:36.082Z,19.15
2022-10-18T22:20:39.048Z,19.14
2022-10-18T22:24:43.397Z,19.21
2022-10-18T22:28:47.653Z,19.20
2022-10-18T22:32:51.020Z,19.19
2022-10-18T22:36:55.490Z,19.19
